Terminal Aerodrome Forecast
Issued by NWS

Home | Current Version | Previous Version | Graphics & Text | Print | Product List | Glossary On
Versions: 1 2 3 4 5 6 7 8 9 10 11 12 13 14 15 16 17 18 19
000
FTUS43 KUNR 281343 AAA
TAFGCC
TAF AMD
KGCC 281343Z 2814/2912 03008KT 1SM -SN OVC004
     FM281600 01010KT 4SM -SN OVC008
     FM282100 35009KT P6SM BKN050=

USA.gov is the U.S. government's official web portal to all federal, state and local government web resources and services.